Time;durP1;ratioP1;P1;durP2;ratioP2;P2;SDS_P1;SDS_P2;PMS_P1;PMS_P2;Temp;Humidity;BMP_temperature;BMP_pressure;BME280_temperature;BME280_humidity;BME280_pressure;Samples;Min_cycle;Max_cycle;Signal;HPM_P1;HPM_P2
2022/11/24 00:01:50;;;;;;;15.77;9.82;;;6.80;99.90;;;;;;5075453;28;20951;-72
2022/11/24 00:04:16;;;;;;;14.57;9.80;;;6.90;99.90;;;;;;5093462;28;20238;-72
2022/11/24 00:06:41;;;;;;;16.83;10.47;;;6.90;99.90;;;;;;5093505;28;20184;-72
2022/11/24 00:09:07;;;;;;;17.43;11.73;;;6.90;99.90;;;;;;5093494;28;20543;-72
2022/11/24 00:11:36;;;;;;;17.80;11.20;;;6.90;99.90;;;;;;5093688;28;20172;-72
2022/11/24 00:14:03;;;;;;;19.17;11.75;;;6.90;99.90;;;;;;5093530;28;20442;-72
2022/11/24 00:16:31;;;;;;;18.15;11.95;;;6.90;99.90;;;;;;5075315;28;20168;-72
2022/11/24 00:18:59;;;;;;;21.52;12.27;;;6.90;99.90;;;;;;5075165;28;20274;-72
2022/11/24 00:21:27;;;;;;;18.25;11.45;;;6.90;99.90;;;;;;5078979;28;20577;-72
2022/11/24 00:23:53;;;;;;;16.95;11.77;;;6.90;99.90;;;;;;5097375;28;20177;-72
2022/11/24 00:26:22;;;;;;;22.87;12.83;;;6.90;99.90;;;;;;5097232;28;20684;-73
2022/11/24 00:28:49;;;;;;;23.75;13.82;;;6.90;99.90;;;;;;5079125;28;20180;-72
2022/11/24 00:31:24;;;;;;;26.30;15.88;;;6.90;99.90;;;;;;5078862;28;20199;-72
2022/11/24 00:33:52;;;;;;;22.60;13.32;;;6.90;99.90;;;;;;5097176;28;20167;-72
2022/11/24 00:36:19;;;;;;;23.73;14.45;;;6.90;99.90;;;;;;5096976;28;20241;-72
2022/11/24 00:38:45;;;;;;;21.88;13.95;;;6.90;99.90;;;;;;5078716;28;20742;-72
2022/11/24 00:41:12;;;;;;;25.70;16.08;;;6.90;99.90;;;;;;5096873;28;20188;-72
2022/11/24 00:43:37;;;;;;;31.10;15.80;;;6.90;99.90;;;;;;5096960;28;20173;-72
2022/11/24 00:46:03;;;;;;;24.73;14.40;;;6.90;99.90;;;;;;5096902;28;20192;-72
2022/11/24 00:48:29;;;;;;;23.80;15.35;;;7.00;99.90;;;;;;5097377;28;20223;-72
2022/11/24 00:51:05;;;;;;;27.77;14.55;;;7.00;99.90;;;;;;5078569;28;20185;-72
2022/11/24 00:53:31;;;;;;;28.48;16.92;;;7.00;99.90;;;;;;5097367;28;20183;-72
2022/11/24 00:55:56;;;;;;;26.70;16.40;;;7.00;99.90;;;;;;5096639;28;20192;-72
2022/11/24 00:58:23;;;;;;;25.07;14.80;;;7.00;99.90;;;;;;5096606;28;20281;-72
2022/11/24 01:00:49;;;;;;;28.50;16.52;;;7.00;99.90;;;;;;5096661;28;20189;-72
2022/11/24 01:03:16;;;;;;;30.25;16.92;;;7.10;99.90;;;;;;5097032;28;20173;-72
2022/11/24 01:05:42;;;;;;;28.95;16.95;;;7.10;99.90;;;;;;5096535;28;20569;-72
2022/11/24 01:08:08;;;;;;;33.97;17.07;;;7.10;99.90;;;;;;5096915;28;20173;-72
2022/11/24 01:10:34;;;;;;;27.40;15.32;;;7.10;99.90;;;;;;5096360;28;20439;-72
2022/11/24 01:13:00;;;;;;;26.80;16.37;;;7.10;99.90;;;;;;5078474;28;20263;-72
2022/11/24 01:15:26;;;;;;;26.77;15.70;;;7.10;99.90;;;;;;5096235;28;20424;-72
2022/11/24 01:17:52;;;;;;;31.77;17.83;;;7.10;99.90;;;;;;5078290;28;20732;-73
2022/11/24 01:20:18;;;;;;;31.88;17.60;;;7.10;99.90;;;;;;5077993;28;20232;-72
2022/11/24 01:22:43;;;;;;;28.33;15.97;;;7.10;99.90;;;;;;5077973;28;20661;-72
2022/11/24 01:25:10;;;;;;;31.93;17.67;;;7.10;99.90;;;;;;5077976;28;20769;-72
2022/11/24 01:27:36;;;;;;;27.10;17.10;;;7.10;99.90;;;;;;5078002;28;20650;-72
2022/11/24 01:30:04;;;;;;;29.70;16.30;;;7.10;99.90;;;;;;5077648;28;20201;-72
2022/11/24 01:32:32;;;;;;;31.65;17.42;;;7.10;99.90;;;;;;5096058;28;20187;-72
2022/11/24 01:34:58;;;;;;;30.67;17.95;;;7.10;99.90;;;;;;5095818;28;20184;-72
2022/11/24 01:37:24;;;;;;;34.50;18.98;;;7.10;99.90;;;;;;5095759;28;20664;-74
2022/11/24 01:39:49;;;;;;;32.00;17.57;;;7.10;99.90;;;;;;5077787;28;20283;-72
2022/11/24 01:42:15;;;;;;;32.70;17.27;;;7.10;99.90;;;;;;5077899;28;20184;-72
2022/11/24 01:44:41;;;;;;;29.93;17.40;;;7.10;99.90;;;;;;5077514;28;20231;-72
2022/11/24 01:47:34;;;;;;;31.33;16.85;;;7.10;99.90;;;;;;5096113;28;20177;-72
2022/11/24 01:50:02;;;;;;;30.20;17.23;;;7.10;99.90;;;;;;5094017;28;20699;-72
2022/11/24 01:52:39;;;;;;;28.90;17.33;;;7.00;99.90;;;;;;5095966;28;20187;-72
2022/11/24 01:55:13;;;;;;;34.83;16.85;;;7.00;99.90;;;;;;5077481;28;20207;-72
2022/11/24 01:58:04;;;;;;;31.48;16.63;;;7.00;99.90;;;;;;5077568;28;20216;-72
2022/11/24 02:00:30;;;;;;;28.50;16.52;;;7.00;99.90;;;;;;5095549;28;20719;-72
2022/11/24 02:02:57;;;;;;;27.33;15.40;;;7.00;99.90;;;;;;5095827;28;20172;-72
2022/11/24 02:05:37;;;;;;;33.00;17.67;;;7.00;99.90;;;;;;5095358;28;20421;-72
2022/11/24 02:08:05;;;;;;;27.73;17.45;;;7.00;99.90;;;;;;5077122;28;20187;-72
2022/11/24 02:10:31;;;;;;;28.35;15.52;;;7.00;99.90;;;;;;5095285;28;20661;-72
2022/11/24 02:12:59;;;;;;;30.20;16.63;;;7.00;99.90;;;;;;5095612;28;20179;-72
2022/11/24 02:15:25;;;;;;;30.20;15.95;;;7.00;99.90;;;;;;5076711;28;20293;-72
2022/11/24 02:17:51;;;;;;;29.40;15.85;;;7.00;99.90;;;;;;5095517;28;20334;-72
2022/11/24 02:20:17;;;;;;;28.93;17.50;;;7.00;99.90;;;;;;5095004;28;20306;-72
2022/11/24 02:23:10;;;;;;;27.27;16.52;;;7.00;99.90;;;;;;5095530;28;20657;-72
2022/11/24 02:25:38;;;;;;;30.08;16.30;;;7.00;99.90;;;;;;5094953;28;20193;-72
2022/11/24 02:28:07;;;;;;;24.92;14.95;;;7.00;99.90;;;;;;5076952;28;20180;-72
2022/11/24 02:30:34;;;;;;;27.58;17.52;;;7.00;99.90;;;;;;5094867;28;20192;-72
2022/11/24 02:33:00;;;;;;;25.33;16.10;;;7.00;99.90;;;;;;5076681;28;20242;-72
2022/11/24 02:35:27;;;;;;;29.70;16.38;;;7.00;99.90;;;;;;5094721;28;20188;-72
2022/11/24 02:37:53;;;;;;;26.35;16.92;;;7.00;99.90;;;;;;5094569;28;20235;-72
2022/11/24 02:40:24;;;;;;;26.30;16.40;;;7.00;99.90;;;;;;5094758;28;20263;-72
2022/11/24 02:42:55;;;;;;;31.08;15.60;;;7.00;99.90;;;;;;5075974;28;20428;-72
2022/11/24 02:45:21;;;;;;;25.90;14.77;;;7.00;99.90;;;;;;5110332;28;20254;-72
2022/11/24 02:47:47;;;;;;;24.52;14.93;;;7.00;99.90;;;;;;5095034;28;20177;-72
2022/11/24 02:50:13;;;;;;;27.20;15.27;;;7.00;99.90;;;;;;5076361;28;20691;-72
2022/11/24 02:52:39;;;;;;;27.33;15.13;;;7.00;99.90;;;;;;5094799;28;20214;-72
2022/11/24 02:55:04;;;;;;;25.17;13.93;;;7.10;99.90;;;;;;5094394;28;20462;-72
2022/11/24 02:57:30;;;;;;;27.30;16.10;;;7.10;99.90;;;;;;5076316;28;20258;-72
2022/11/24 02:59:56;;;;;;;26.57;14.57;;;7.10;99.90;;;;;;5094276;28;20196;-72
2022/11/24 03:02:22;;;;;;;24.07;15.33;;;7.10;99.90;;;;;;5094601;28;20237;-72
2022/11/24 03:04:47;;;;;;;24.05;15.32;;;7.10;99.90;;;;;;5094332;28;20545;-72
2022/11/24 03:07:13;;;;;;;26.60;14.17;;;7.10;99.90;;;;;;5094540;28;20229;-72
2022/11/24 03:09:39;;;;;;;22.00;13.43;;;7.10;99.90;;;;;;5076011;28;20328;-72
2022/11/24 03:12:05;;;;;;;23.83;13.10;;;7.10;99.90;;;;;;5094396;28;20176;-72
2022/11/24 03:14:31;;;;;;;24.85;14.75;;;7.10;99.90;;;;;;5094217;28;20199;-72
2022/11/24 03:16:56;;;;;;;24.10;13.40;;;7.10;99.90;;;;;;5094068;28;20559;-72
2022/11/24 03:19:22;;;;;;;28.17;14.27;;;7.10;99.90;;;;;;5094003;28;20207;-72
2022/11/24 03:21:48;;;;;;;21.40;14.23;;;7.10;99.90;;;;;;5075964;28;20922;-72
2022/11/24 03:24:14;;;;;;;23.20;13.30;;;7.10;99.90;;;;;;5093944;28;20681;-72
2022/11/24 03:26:40;;;;;;;25.90;15.17;;;7.10;99.90;;;;;;5075978;28;20653;-72
2022/11/24 03:29:06;;;;;;;27.85;14.40;;;7.20;99.90;;;;;;5075824;28;20619;-72
2022/11/24 03:31:32;;;;;;;24.50;14.97;;;7.20;99.90;;;;;;5075864;28;20220;-72
2022/11/24 03:33:58;;;;;;;23.43;13.80;;;7.20;99.90;;;;;;5075741;28;20421;-72
2022/11/24 03:36:23;;;;;;;24.23;12.47;;;7.20;99.90;;;;;;5094118;28;20169;-72
2022/11/24 03:38:49;;;;;;;23.40;13.10;;;7.20;99.90;;;;;;5075530;28;20712;-73
2022/11/24 03:41:14;;;;;;;26.43;14.60;;;7.20;99.90;;;;;;5093701;28;20712;-72
2022/11/24 03:43:40;;;;;;;23.57;13.60;;;7.20;99.90;;;;;;5093878;28;20168;-71
2022/11/24 03:46:06;;;;;;;23.77;13.50;;;7.20;99.90;;;;;;5093684;28;20192;-72
2022/11/24 03:48:31;;;;;;;25.20;14.60;;;7.20;99.90;;;;;;5075864;28;20664;-72
2022/11/24 03:50:59;;;;;;;22.60;13.57;;;7.20;99.90;;;;;;5093688;28;20204;-72
2022/11/24 03:53:26;;;;;;;25.33;15.98;;;7.20;99.90;;;;;;5094715;28;20176;-72
2022/11/24 03:55:52;;;;;;;28.85;17.70;;;7.20;99.90;;;;;;5079773;28;20613;-72
2022/11/24 03:58:18;;;;;;;28.67;16.20;;;7.20;99.90;;;;;;5098187;28;20220;-72
2022/11/24 04:00:44;;;;;;;35.60;20.88;;;7.20;99.90;;;;;;5079574;28;20200;-72
2022/11/24 04:03:10;;;;;;;34.65;19.65;;;7.20;99.90;;;;;;5097642;28;20234;-72
2022/11/24 04:05:36;;;;;;;35.63;19.10;;;7.20;99.90;;;;;;5097746;28;20623;-72
2022/11/24 04:08:04;;;;;;;32.63;19.80;;;7.20;99.90;;;;;;5098179;28;20256;-72
2022/11/24 04:10:31;;;;;;;35.97;17.98;;;7.20;99.90;;;;;;5097573;28;20934;-72
2022/11/24 04:12:57;;;;;;;36.42;19.50;;;7.20;99.90;;;;;;5097509;28;20172;-72
2022/11/24 04:15:22;;;;;;;32.93;19.60;;;7.20;99.90;;;;;;5097478;28;20280;-72
2022/11/24 04:17:49;;;;;;;36.20;20.70;;;7.10;99.90;;;;;;5097843;28;20251;-72
2022/11/24 04:20:16;;;;;;;36.88;20.95;;;7.10;99.90;;;;;;5097335;28;20205;-72
2022/11/24 04:22:42;;;;;;;39.42;19.90;;;7.10;99.90;;;;;;5079425;28;20188;-72
2022/11/24 04:25:09;;;;;;;40.83;19.95;;;7.10;99.90;;;;;;5079107;28;20192;-72
2022/11/24 04:27:36;;;;;;;37.53;19.88;;;7.10;99.90;;;;;;5097240;28;20566;-73
2022/11/24 04:30:05;;;;;;;33.70;19.75;;;7.10;99.90;;;;;;5097385;28;20188;-73
2022/11/24 04:32:31;;;;;;;37.67;21.00;;;7.00;99.90;;;;;;5097106;28;20205;-72
2022/11/24 04:34:57;;;;;;;41.40;21.80;;;7.00;99.90;;;;;;5097152;28;20275;-73
2022/11/24 04:37:22;;;;;;;39.73;22.27;;;7.00;99.90;;;;;;5078588;28;20239;-72
2022/11/24 04:39:48;;;;;;;44.40;23.53;;;7.00;99.90;;;;;;5097118;28;20191;-72
2022/11/24 04:42:13;;;;;;;34.83;20.10;;;7.00;99.90;;;;;;5078898;28;20184;-72
2022/11/24 04:44:39;;;;;;;40.30;23.30;;;7.00;99.90;;;;;;5096958;28;20286;-72
2022/11/24 04:47:05;;;;;;;42.43;24.43;;;7.00;99.90;;;;;;5096802;28;20226;-72
2022/11/24 04:49:31;;;;;;;40.20;21.87;;;7.00;99.90;;;;;;5078720;28;20201;-72
2022/11/24 04:51:57;;;;;;;48.07;25.93;;;7.00;99.90;;;;;;5078762;28;20417;-72
2022/11/24 04:54:22;;;;;;;44.13;23.67;;;7.00;99.90;;;;;;5096707;28;20200;-72
2022/11/24 04:56:52;;;;;;;44.47;25.10;;;7.00;99.90;;;;;;5096335;28;20181;-72
2022/11/24 04:59:18;;;;;;;51.13;25.83;;;7.00;99.90;;;;;;5078035;28;20267;-72
2022/11/24 05:01:45;;;;;;;47.75;24.40;;;7.00;99.90;;;;;;5096592;28;20172;-72
2022/11/24 05:04:13;;;;;;;51.17;25.90;;;7.00;99.90;;;;;;5078221;28;20180;-72
2022/11/24 05:06:39;;;;;;;48.78;24.80;;;7.00;99.90;;;;;;5077701;28;20187;-72
2022/11/24 05:09:06;;;;;;;49.47;25.27;;;7.10;99.90;;;;;;5078360;28;20617;-72
2022/11/24 05:11:32;;;;;;;48.63;25.50;;;7.00;99.90;;;;;;5078386;28;20191;-72
2022/11/24 05:13:57;;;;;;;52.57;26.20;;;7.00;99.90;;;;;;5096333;28;20177;-72
2022/11/24 05:16:23;;;;;;;46.90;27.27;;;7.10;99.90;;;;;;5078224;28;20388;-72
2022/11/24 05:18:49;;;;;;;49.33;27.43;;;7.10;99.90;;;;;;5096412;28;20204;-72
2022/11/24 05:21:14;;;;;;;51.23;27.80;;;7.10;99.90;;;;;;5095887;28;20199;-72
2022/11/24 05:23:40;;;;;;;43.90;25.70;;;7.10;99.90;;;;;;5096206;28;20180;-74
2022/11/24 05:26:06;;;;;;;44.90;25.10;;;7.10;99.90;;;;;;5077704;28;20524;-73
2022/11/24 05:28:32;;;;;;;52.58;27.63;;;7.00;99.90;;;;;;5085208;28;20275;-73
2022/11/24 05:30:59;;;;;;;54.17;29.52;;;7.10;99.90;;;;;;5077751;28;20208;-74
2022/11/24 05:33:27;;;;;;;54.25;27.00;;;7.00;99.90;;;;;;5096427;28;20739;-73
2022/11/24 05:35:53;;;;;;;53.40;28.25;;;7.00;99.90;;;;;;5103109;28;20194;-73
2022/11/24 05:38:21;;;;;;;56.92;27.83;;;7.00;99.90;;;;;;5078745;28;20268;-73
2022/11/24 05:40:47;;;;;;;52.03;29.60;;;7.00;99.90;;;;;;5093739;28;20654;-73
2022/11/24 05:43:15;;;;;;;54.55;27.25;;;6.90;99.90;;;;;;5092793;28;20551;-73
2022/11/24 05:45:41;;;;;;;65.07;33.88;;;7.00;99.90;;;;;;5090477;28;20203;-73
2022/11/24 05:48:10;;;;;;;60.25;28.85;;;7.00;99.90;;;;;;5113266;28;20643;-72
2022/11/24 05:50:36;;;;;;;53.53;28.98;;;7.00;99.90;;;;;;5111052;28;20298;-72
2022/11/24 05:53:04;;;;;;;54.37;28.77;;;7.00;99.90;;;;;;5104661;28;20258;-74
2022/11/24 05:55:30;;;;;;;53.97;29.35;;;6.90;99.90;;;;;;5095413;28;20198;-73
2022/11/24 05:58:00;;;;;;;55.95;29.70;;;6.90;99.90;;;;;;5101421;28;20720;-74
2022/11/24 06:00:27;;;;;;;49.80;25.70;;;6.90;99.90;;;;;;5111080;28;20723;-73
2022/11/24 06:02:53;;;;;;;52.55;29.38;;;6.90;99.90;;;;;;5080342;28;20624;-73
2022/11/24 06:05:19;;;;;;;55.13;28.70;;;6.90;99.90;;;;;;5112345;28;20286;-73
2022/11/24 06:07:44;;;;;;;57.53;28.13;;;6.90;99.90;;;;;;5096202;28;20424;-72
2022/11/24 06:10:10;;;;;;;55.83;28.67;;;6.90;99.90;;;;;;5094574;28;20199;-73
2022/11/24 06:12:36;;;;;;;63.53;28.70;;;6.90;99.90;;;;;;5094962;28;20542;-73
2022/11/24 06:15:01;;;;;;;55.23;28.37;;;6.90;99.90;;;;;;5095460;28;20211;-73
2022/11/24 06:17:27;;;;;;;55.47;28.60;;;6.90;99.90;;;;;;5109364;28;20211;-73
2022/11/24 06:19:53;;;;;;;52.58;28.13;;;6.90;99.90;;;;;;5112043;28;20264;-73
2022/11/24 06:22:19;;;;;;;51.13;27.90;;;6.90;99.90;;;;;;5102931;28;20217;-72
2022/11/24 06:24:45;;;;;;;55.70;29.10;;;6.90;99.90;;;;;;5084851;28;20457;-72
2022/11/24 06:27:12;;;;;;;53.00;28.08;;;6.90;99.90;;;;;;5108937;28;20191;-73
2022/11/24 06:29:38;;;;;;;52.38;28.75;;;6.90;99.90;;;;;;5095974;28;20192;-73
2022/11/24 06:32:04;;;;;;;57.75;27.83;;;6.90;99.90;;;;;;5095503;28;20190;-74
2022/11/24 06:34:30;;;;;;;53.10;29.92;;;6.90;99.90;;;;;;5109314;28;20653;-72
2022/11/24 06:36:56;;;;;;;60.23;30.57;;;6.90;99.90;;;;;;5104299;28;20224;-72
2022/11/24 06:39:22;;;;;;;50.22;25.98;;;6.90;99.90;;;;;;5103510;28;20239;-72
2022/11/24 06:41:51;;;;;;;50.40;25.17;;;7.00;99.90;;;;;;5085159;28;20622;-74
2022/11/24 06:44:17;;;;;;;54.40;28.42;;;7.00;99.90;;;;;;5100952;28;20204;-72
2022/11/24 06:46:43;;;;;;;49.83;25.03;;;7.00;99.90;;;;;;5082944;28;20190;-73
2022/11/24 06:49:08;;;;;;;53.47;28.43;;;7.00;99.90;;;;;;5082102;28;20872;-72
2022/11/24 06:51:34;;;;;;;53.27;26.23;;;7.00;99.90;;;;;;5101184;28;20210;-72
2022/11/24 06:54:00;;;;;;;56.20;28.40;;;7.10;99.90;;;;;;5096965;28;20183;-74
2022/11/24 06:56:26;;;;;;;55.50;27.92;;;7.10;99.90;;;;;;5101055;28;20163;-74
2022/11/24 06:58:52;;;;;;;44.87;26.23;;;7.10;99.90;;;;;;5082448;28;20212;-74
2022/11/24 07:01:24;;;;;;;50.03;24.92;;;7.10;99.90;;;;;;5082817;28;20193;-72
2022/11/24 07:03:51;;;;;;;54.63;27.13;;;7.10;99.90;;;;;;5084618;28;20188;-73
2022/11/24 07:06:18;;;;;;;52.78;27.15;;;7.10;99.90;;;;;;5101783;28;20196;-73
2022/11/24 07:08:44;;;;;;;55.53;24.95;;;7.10;99.90;;;;;;5076390;28;20188;-72
2022/11/24 07:11:14;;;;;;;50.03;28.33;;;7.10;99.90;;;;;;5079940;28;20667;-72
2022/11/24 07:13:41;;;;;;;51.08;25.27;;;7.10;99.90;;;;;;5100804;28;20172;-72
2022/11/24 07:16:21;;;;;;;49.47;26.25;;;7.10;99.90;;;;;;5093050;28;20587;-72
2022/11/24 07:18:50;;;;;;;49.13;25.77;;;7.10;99.90;;;;;;5099556;28;20630;-73
2022/11/24 07:21:16;;;;;;;58.17;30.30;;;7.10;99.90;;;;;;5083094;28;20207;-73
2022/11/24 07:23:42;;;;;;;52.35;27.45;;;7.10;99.90;;;;;;5077453;28;20202;-74
2022/11/24 07:26:09;;;;;;;59.00;30.00;;;7.10;99.90;;;;;;5079894;28;20325;-73
2022/11/24 07:28:36;;;;;;;56.35;28.13;;;7.10;99.90;;;;;;5077810;28;20172;-73
2022/11/24 07:31:06;;;;;;;58.55;28.85;;;7.10;99.90;;;;;;5100479;28;20200;-73
2022/11/24 07:33:33;;;;;;;57.53;28.17;;;7.00;99.90;;;;;;5081811;28;20215;-73
2022/11/24 07:35:59;;;;;;;64.82;28.73;;;7.00;99.90;;;;;;5099942;28;20279;-74
2022/11/24 07:38:25;;;;;;;51.88;26.50;;;7.00;99.90;;;;;;5098286;28;20327;-73
2022/11/24 07:40:52;;;;;;;59.45;29.83;;;7.00;99.90;;;;;;5072911;28;20297;-73
2022/11/24 07:43:17;;;;;;;48.70;27.80;;;7.00;99.90;;;;;;5085963;28;20629;-74
2022/11/24 07:45:43;;;;;;;60.00;29.03;;;7.00;99.90;;;;;;5090205;28;20207;-73
2022/11/24 07:48:10;;;;;;;64.80;27.97;;;7.00;99.90;;;;;;5098880;28;20524;-73
2022/11/24 07:50:36;;;;;;;63.13;27.25;;;7.00;99.90;;;;;;5092262;28;20230;-72
2022/11/24 07:53:02;;;;;;;58.70;28.57;;;7.00;99.90;;;;;;5108115;28;20203;-74
2022/11/24 07:55:28;;;;;;;54.58;27.40;;;7.00;99.90;;;;;;5095718;28;20210;-75
2022/11/24 07:57:57;;;;;;;63.75;29.85;;;7.00;99.90;;;;;;5097339;28;20207;-72
2022/11/24 08:00:23;;;;;;;56.35;29.05;;;7.10;99.90;;;;;;5093354;28;20224;-72
2022/11/24 08:02:48;;;;;;;55.00;28.10;;;7.10;99.90;;;;;;5076135;28;20180;-74
2022/11/24 08:05:14;;;;;;;58.23;29.73;;;7.10;99.90;;;;;;5097962;28;20209;-73
2022/11/24 08:07:40;;;;;;;54.77;29.57;;;7.20;99.90;;;;;;5098924;28;20172;-73
2022/11/24 08:10:06;;;;;;;55.57;29.47;;;7.20;99.90;;;;;;5101047;28;20201;-73
2022/11/24 08:12:31;;;;;;;48.00;27.25;;;7.20;99.90;;;;;;5082563;28;20176;-73
2022/11/24 08:14:57;;;;;;;48.67;26.63;;;7.20;99.90;;;;;;5090417;28;20272;-73
2022/11/24 08:17:23;;;;;;;46.70;25.30;;;7.20;99.90;;;;;;5072712;28;20180;-74
2022/11/24 08:19:48;;;;;;;53.90;27.10;;;7.30;99.90;;;;;;5081094;28;20228;-73
2022/11/24 08:22:14;;;;;;;55.27;27.20;;;7.30;99.90;;;;;;5083167;28;20440;-73
2022/11/24 08:24:45;;;;;;;48.20;22.53;;;7.30;99.90;;;;;;5087240;28;20219;-73
2022/11/24 08:27:11;;;;;;;48.67;24.63;;;7.30;99.90;;;;;;5101402;28;20181;-74
2022/11/24 08:29:37;;;;;;;53.97;24.35;;;7.30;99.90;;;;;;5110126;28;20252;-73
2022/11/24 08:32:03;;;;;;;45.77;22.13;;;7.30;99.90;;;;;;5083324;28;20264;-73
2022/11/24 08:34:28;;;;;;;43.90;22.53;;;7.30;99.90;;;;;;5080441;28;20291;-73
2022/11/24 08:36:54;;;;;;;41.00;22.40;;;7.30;99.90;;;;;;5091024;28;20518;-73
2022/11/24 08:39:19;;;;;;;41.20;20.83;;;7.30;99.90;;;;;;5109055;28;20697;-73
2022/11/24 08:41:45;;;;;;;45.03;21.97;;;7.30;99.90;;;;;;5105935;28;20250;-73
2022/11/24 08:44:14;;;;;;;37.57;19.83;;;7.40;99.90;;;;;;5086701;28;20275;-73
2022/11/24 08:46:40;;;;;;;37.47;19.30;;;7.40;99.90;;;;;;5109525;28;20263;-73
2022/11/24 08:49:07;;;;;;;41.07;21.90;;;7.40;99.90;;;;;;5114609;28;20203;-73
2022/11/24 08:51:32;;;;;;;39.13;19.25;;;7.40;99.90;;;;;;5081214;28;20425;-73
2022/11/24 08:54:00;;;;;;;37.77;18.87;;;7.40;99.90;;;;;;5086770;28;20672;-73
2022/11/24 08:56:27;;;;;;;27.75;16.42;;;7.40;99.90;;;;;;5105180;28;20428;-73
2022/11/24 08:58:53;;;;;;;32.38;16.45;;;7.40;99.90;;;;;;5103213;28;20231;-73
2022/11/24 09:01:19;;;;;;;29.27;15.85;;;7.40;99.90;;;;;;5080775;28;20290;-73
2022/11/24 09:03:47;;;;;;;32.17;16.40;;;7.50;99.90;;;;;;5109758;28;20306;-73
2022/11/24 09:06:13;;;;;;;31.30;14.98;;;7.50;99.90;;;;;;5101567;28;20438;-73
2022/11/24 09:08:39;;;;;;;27.27;13.63;;;7.50;99.90;;;;;;5103047;28;20194;-73
2022/11/24 09:11:08;;;;;;;23.20;13.90;;;7.50;99.90;;;;;;5075222;28;20623;-74
2022/11/24 09:13:34;;;;;;;27.23;15.88;;;7.50;99.90;;;;;;5100451;28;20238;-73
2022/11/24 09:16:18;;;;;;;22.15;11.68;;;7.60;99.90;;;;;;5095921;28;20227;-73
2022/11/24 09:18:45;;;;;;;18.67;11.10;;;7.60;99.90;;;;;;5085454;28;20613;-73
2022/11/24 09:21:17;;;;;;;20.25;11.50;;;7.60;99.90;;;;;;5101116;28;20202;-73
2022/11/24 09:23:44;;;;;;;26.45;14.95;;;7.60;99.90;;;;;;5082554;28;20203;-72
2022/11/24 09:26:18;;;;;;;19.42;12.43;;;7.70;99.90;;;;;;5105449;28;20200;-73
2022/11/24 09:28:44;;;;;;;19.88;10.20;;;7.70;99.90;;;;;;5097149;28;20180;-73
2022/11/24 09:31:12;;;;;;;20.23;11.65;;;7.70;99.90;;;;;;5097498;28;20207;-73
2022/11/24 09:33:39;;;;;;;23.13;11.02;;;7.70;99.90;;;;;;5096543;28;20700;-73
2022/11/24 09:36:05;;;;;;;19.75;11.52;;;7.70;99.90;;;;;;5078297;28;20203;-73
2022/11/24 09:38:31;;;;;;;18.15;10.30;;;7.70;99.90;;;;;;5079861;28;20240;-74
2022/11/24 09:41:31;;;;;;;19.43;9.93;;;7.80;99.90;;;;;;5099565;28;20225;-73
2022/11/24 09:44:18;;;;;;;20.63;11.75;;;7.80;99.90;;;;;;5099428;28;20474;-74
2022/11/24 09:46:58;;;;;;;19.73;10.55;;;7.80;99.90;;;;;;5100053;28;20649;-73
2022/11/24 09:49:37;;;;;;;20.27;10.82;;;7.80;99.90;;;;;;5084537;28;20211;-74
2022/11/24 09:52:12;;;;;;;17.77;9.68;;;7.80;99.90;;;;;;5101842;28;20184;-73
2022/11/24 09:54:54;;;;;;;22.20;11.32;;;7.90;99.90;;;;;;5080923;28;20299;-73
2022/11/24 09:57:22;;;;;;;20.02;12.48;;;7.90;99.90;;;;;;5078524;28;20267;-73
2022/11/24 09:59:48;;;;;;;19.95;12.30;;;7.90;99.90;;;;;;5078709;28;20227;-73
2022/11/24 10:02:14;;;;;;;21.40;11.40;;;7.90;99.90;;;;;;5097049;28;20222;-73
2022/11/24 10:04:43;;;;;;;18.77;10.43;;;7.90;99.90;;;;;;5098371;28;20212;-73
2022/11/24 10:07:26;;;;;;;24.42;13.73;;;8.00;99.90;;;;;;5097003;28;20176;-73
2022/11/24 10:10:16;;;;;;;22.15;11.15;;;8.00;99.90;;;;;;5081993;28;20567;-73
2022/11/24 10:13:10;;;;;;;21.35;13.27;;;8.00;99.90;;;;;;5103289;28;20194;-73
2022/11/24 10:15:44;;;;;;;31.33;15.95;;;8.10;99.90;;;;;;5104902;28;20657;-75
2022/11/24 10:18:55;;;;;;;39.65;21.77;;;8.10;99.90;;;;;;5100529;28;20222;-73
2022/11/24 10:21:42;;;;;;;35.55;19.27;;;8.10;99.90;;;;;;5091066;28;20583;-74
2022/11/24 10:24:27;;;;;;;27.00;14.68;;;8.10;99.90;;;;;;5095855;28;20171;-74
2022/11/24 10:27:14;;;;;;;23.85;14.15;;;8.10;99.90;;;;;;5082863;28;20226;-74
2022/11/24 10:29:42;;;;;;;33.08;16.13;;;8.10;99.90;;;;;;5105341;28;20204;-73
2022/11/24 10:32:41;;;;;;;47.95;23.00;;;8.20;99.90;;;;;;5093774;28;20664;-73
2022/11/24 10:35:44;;;;;;;36.45;17.83;;;8.20;99.90;;;;;;5071052;28;20616;-73
2022/11/24 10:38:21;;;;;;;35.00;18.30;;;8.20;99.90;;;;;;5046355;28;20653;-74
2022/11/24 10:41:05;;;;;;;36.33;19.67;;;8.20;99.90;;;;;;5079601;28;20208;-75
2022/11/24 10:43:31;;;;;;;33.30;19.23;;;8.30;99.90;;;;;;5090040;28;20175;-73
2022/11/24 10:46:18;;;;;;;34.20;19.13;;;8.30;99.90;;;;;;5105222;28;20274;-75
2022/11/24 10:48:56;;;;;;;36.17;18.63;;;8.30;99.90;;;;;;5085925;28;20279;-74
2022/11/24 10:51:46;;;;;;;33.60;17.13;;;8.40;99.90;;;;;;5096530;28;20880;-72
2022/11/24 10:54:18;;;;;;;29.20;16.65;;;8.40;99.90;;;;;;5086766;28;20190;-73
2022/11/24 10:56:45;;;;;;;30.50;18.88;;;8.40;99.90;;;;;;5099908;28;20180;-73
2022/11/24 10:59:34;;;;;;;31.73;17.95;;;8.40;99.90;;;;;;5097967;28;20224;-72
2022/11/24 11:02:00;;;;;;;30.50;18.48;;;8.40;99.90;;;;;;5082128;28;20236;-72
2022/11/24 11:04:32;;;;;;;30.37;17.17;;;8.40;99.90;;;;;;5084512;28;20200;-73
2022/11/24 11:07:22;;;;;;;29.05;16.55;;;8.40;99.90;;;;;;5104101;28;20813;-73
2022/11/24 11:09:48;;;;;;;31.42;15.65;;;8.40;99.90;;;;;;5107452;28;20222;-72
2022/11/24 11:12:28;;;;;;;29.87;18.13;;;8.40;99.90;;;;;;5107582;28;20180;-73
2022/11/24 11:14:54;;;;;;;24.65;14.60;;;8.50;99.90;;;;;;5090795;28;20651;-72
2022/11/24 11:17:34;;;;;;;22.27;14.87;;;8.50;99.90;;;;;;5099018;28;20256;-72
2022/11/24 11:20:26;;;;;;;24.88;13.90;;;8.50;99.90;;;;;;5104652;28;20192;-72
2022/11/24 11:22:54;;;;;;;26.35;13.82;;;8.50;99.90;;;;;;5077129;28;20181;-73
2022/11/24 11:25:33;;;;;;;28.48;14.75;;;8.50;99.90;;;;;;5097034;28;20299;-73
2022/11/24 11:28:31;;;;;;;22.30;13.45;;;8.50;99.90;;;;;;5083447;28;20266;-72
2022/11/24 11:31:01;;;;;;;26.88;14.98;;;8.50;99.90;;;;;;5032180;28;20220;-72
2022/11/24 11:33:29;;;;;;;22.08;13.40;;;8.50;99.90;;;;;;5082737;28;20177;-73
2022/11/24 11:35:56;;;;;;;37.13;18.63;;;8.40;99.90;;;;;;5090250;28;20211;-72
2022/11/24 11:38:25;;;;;;;29.80;15.65;;;8.40;99.90;;;;;;5100209;28;20223;-72
2022/11/24 11:40:52;;;;;;;29.60;13.00;;;8.40;99.90;;;;;;5100257;28;20192;-73
2022/11/24 11:43:34;;;;;;;23.45;14.25;;;8.40;99.90;;;;;;5100944;28;20524;-73
2022/11/24 11:46:16;;;;;;;34.63;17.25;;;8.40;99.90;;;;;;5095847;28;20321;-73
2022/11/24 11:48:46;;;;;;;24.45;13.65;;;8.40;99.90;;;;;;5083139;28;20184;-72
2022/11/24 11:51:38;;;;;;;20.63;12.23;;;8.40;99.90;;;;;;5093536;28;20196;-73
2022/11/24 11:55:11;;;;;;;22.52;11.98;;;8.50;99.90;;;;;;5097661;28;20650;-74
2022/11/24 11:57:36;;;;;;;25.20;12.55;;;8.50;99.90;;;;;;5026911;28;20185;-73
2022/11/24 12:00:17;;;;;;;22.90;12.47;;;8.50;99.90;;;;;;5070068;28;20200;-73
2022/11/24 12:02:59;;;;;;;26.58;12.32;;;8.50;99.90;;;;;;5095480;28;20180;-74
2022/11/24 12:05:53;;;;;;;21.95;14.05;;;8.50;99.90;;;;;;5095955;28;20203;-74
2022/11/24 12:08:47;;;;;;;26.88;13.20;;;8.50;99.90;;;;;;5050575;28;20275;-72
2022/11/24 12:11:18;;;;;;;18.92;11.48;;;8.60;99.90;;;;;;5098285;28;20207;-73
2022/11/24 12:14:12;;;;;;;19.83;11.02;;;8.60;99.90;;;;;;5105520;28;20184;-73
2022/11/24 12:17:07;;;;;;;16.95;9.90;;;8.60;99.90;;;;;;5089195;28;20172;-72
2022/11/24 12:19:44;;;;;;;17.48;10.35;;;8.60;99.90;;;;;;5089227;28;20219;-74
2022/11/24 12:22:20;;;;;;;30.50;19.15;;;8.60;99.90;;;;;;5089220;28;20718;-73
2022/11/24 12:25:10;;;;;;;15.75;11.02;;;8.70;99.90;;;;;;5088131;28;20238;-74
2022/11/24 12:28:11;;;;;;;17.25;10.43;;;8.70;99.90;;;;;;5099936;28;20241;-73
2022/11/24 12:30:51;;;;;;;17.40;10.85;;;8.70;99.90;;;;;;5080495;28;20239;-74
2022/11/24 12:33:45;;;;;;;13.82;8.52;;;8.80;99.90;;;;;;5099506;28;20165;-72
2022/11/24 12:36:48;;;;;;;17.38;10.32;;;8.80;99.90;;;;;;5084378;28;21877;-73
2022/11/24 12:39:34;;;;;;;18.23;10.73;;;8.80;99.90;;;;;;5100284;28;20215;-73
2022/11/24 12:42:00;;;;;;;17.55;10.55;;;8.80;99.90;;;;;;5080109;28;20766;-72
2022/11/24 12:44:39;;;;;;;19.77;11.50;;;8.80;99.90;;;;;;5098581;28;20208;-74
2022/11/24 12:47:20;;;;;;;20.92;14.20;;;8.80;99.90;;;;;;5080544;28;20176;-73
2022/11/24 12:50:05;;;;;;;13.63;10.00;;;8.90;99.90;;;;;;5098385;28;20234;-73
2022/11/24 12:52:36;;;;;;;23.90;13.35;;;8.90;99.90;;;;;;5076384;28;20171;-74
2022/11/24 12:55:03;;;;;;;20.27;10.13;;;8.90;99.90;;;;;;5099749;28;20896;-72